sensor_id;sensor_type;location;lat;lon;timestamp;P1;durP1;ratioP1;P2;durP2;ratioP2
26407;SDS011;14583;43.604;1.364;2023-04-27T00:02:24;14.70;;;9.60;;
26407;SDS011;14583;43.604;1.364;2023-04-27T00:04:50;16.15;;;10.20;;
26407;SDS011;14583;43.604;1.364;2023-04-27T00:07:16;13.70;;;10.20;;
26407;SDS011;14583;43.604;1.364;2023-04-27T00:09:41;11.65;;;9.85;;
26407;SDS011;14583;43.604;1.364;2023-04-27T00:12:07;10.95;;;9.27;;
26407;SDS011;14583;43.604;1.364;2023-04-27T00:14:33;12.98;;;9.65;;
26407;SDS011;14583;43.604;1.364;2023-04-27T00:16:58;10.32;;;9.10;;
26407;SDS011;14583;43.604;1.364;2023-04-27T00:19:24;13.32;;;9.70;;
26407;SDS011;14583;43.604;1.364;2023-04-27T00:21:49;11.07;;;9.70;;
26407;SDS011;14583;43.604;1.364;2023-04-27T00:24:15;14.90;;;10.32;;
26407;SDS011;14583;43.604;1.364;2023-04-27T00:26:41;11.85;;;9.98;;
26407;SDS011;14583;43.604;1.364;2023-04-27T00:29:07;14.02;;;9.40;;
26407;SDS011;14583;43.604;1.364;2023-04-27T00:31:32;10.02;;;8.65;;
26407;SDS011;14583;43.604;1.364;2023-04-27T00:33:58;14.35;;;9.52;;
26407;SDS011;14583;43.604;1.364;2023-04-27T00:36:24;14.90;;;10.23;;
26407;SDS011;14583;43.604;1.364;2023-04-27T00:38:49;10.70;;;9.60;;
26407;SDS011;14583;43.604;1.364;2023-04-27T00:41:15;12.15;;;9.70;;
26407;SDS011;14583;43.604;1.364;2023-04-27T00:43:41;12.68;;;10.80;;
26407;SDS011;14583;43.604;1.364;2023-04-27T00:46:08;12.77;;;10.18;;
26407;SDS011;14583;43.604;1.364;2023-04-27T00:48:35;13.55;;;10.02;;
26407;SDS011;14583;43.604;1.364;2023-04-27T00:51:01;12.45;;;9.70;;
26407;SDS011;14583;43.604;1.364;2023-04-27T00:53:26;11.60;;;9.85;;
26407;SDS011;14583;43.604;1.364;2023-04-27T00:55:53;14.93;;;10.43;;
26407;SDS011;14583;43.604;1.364;2023-04-27T00:58:20;13.60;;;9.73;;
26407;SDS011;14583;43.604;1.364;2023-04-27T01:00:47;13.70;;;10.48;;
26407;SDS011;14583;43.604;1.364;2023-04-27T01:03:12;12.98;;;9.95;;
26407;SDS011;14583;43.604;1.364;2023-04-27T01:05:38;12.80;;;9.88;;
26407;SDS011;14583;43.604;1.364;2023-04-27T01:08:04;10.73;;;9.18;;
26407;SDS011;14583;43.604;1.364;2023-04-27T01:10:29;12.52;;;9.15;;
26407;SDS011;14583;43.604;1.364;2023-04-27T01:12:55;11.88;;;9.13;;
26407;SDS011;14583;43.604;1.364;2023-04-27T01:15:21;9.63;;;8.25;;
26407;SDS011;14583;43.604;1.364;2023-04-27T01:17:47;12.77;;;7.80;;
26407;SDS011;14583;43.604;1.364;2023-04-27T01:20:12;13.50;;;8.82;;
26407;SDS011;14583;43.604;1.364;2023-04-27T01:22:39;12.55;;;7.78;;
26407;SDS011;14583;43.604;1.364;2023-04-27T01:25:05;9.57;;;7.88;;
26407;SDS011;14583;43.604;1.364;2023-04-27T01:27:32;9.52;;;7.30;;
26407;SDS011;14583;43.604;1.364;2023-04-27T01:29:57;11.02;;;7.50;;
26407;SDS011;14583;43.604;1.364;2023-04-27T01:32:23;8.75;;;7.78;;
26407;SDS011;14583;43.604;1.364;2023-04-27T01:34:49;10.70;;;8.07;;
26407;SDS011;14583;43.604;1.364;2023-04-27T01:37:14;12.45;;;7.95;;
26407;SDS011;14583;43.604;1.364;2023-04-27T01:39:40;11.77;;;7.88;;
26407;SDS011;14583;43.604;1.364;2023-04-27T01:42:05;11.73;;;8.50;;
26407;SDS011;14583;43.604;1.364;2023-04-27T01:44:31;12.20;;;8.30;;
26407;SDS011;14583;43.604;1.364;2023-04-27T01:46:57;8.80;;;7.57;;
26407;SDS011;14583;43.604;1.364;2023-04-27T01:49:22;12.23;;;7.82;;
26407;SDS011;14583;43.604;1.364;2023-04-27T01:51:48;9.32;;;7.85;;
26407;SDS011;14583;43.604;1.364;2023-04-27T01:54:14;11.10;;;8.15;;
26407;SDS011;14583;43.604;1.364;2023-04-27T01:56:39;10.13;;;7.88;;
26407;SDS011;14583;43.604;1.364;2023-04-27T01:59:05;10.63;;;8.10;;
26407;SDS011;14583;43.604;1.364;2023-04-27T02:01:31;10.65;;;8.60;;
26407;SDS011;14583;43.604;1.364;2023-04-27T02:03:57;11.82;;;8.15;;
26407;SDS011;14583;43.604;1.364;2023-04-27T02:06:22;11.20;;;8.80;;
26407;SDS011;14583;43.604;1.364;2023-04-27T02:08:48;9.80;;;7.80;;
26407;SDS011;14583;43.604;1.364;2023-04-27T02:11:13;15.75;;;9.18;;
26407;SDS011;14583;43.604;1.364;2023-04-27T02:13:39;15.25;;;8.18;;
26407;SDS011;14583;43.604;1.364;2023-04-27T02:16:05;12.63;;;8.48;;
26407;SDS011;14583;43.604;1.364;2023-04-27T02:18:31;11.73;;;8.43;;
26407;SDS011;14583;43.604;1.364;2023-04-27T02:20:57;13.10;;;8.63;;
26407;SDS011;14583;43.604;1.364;2023-04-27T02:23:23;11.43;;;7.72;;
26407;SDS011;14583;43.604;1.364;2023-04-27T02:25:48;17.85;;;8.38;;
26407;SDS011;14583;43.604;1.364;2023-04-27T02:28:14;11.18;;;8.13;;
26407;SDS011;14583;43.604;1.364;2023-04-27T02:30:40;12.30;;;7.82;;
26407;SDS011;14583;43.604;1.364;2023-04-27T02:33:05;11.50;;;8.57;;
26407;SDS011;14583;43.604;1.364;2023-04-27T02:35:31;11.43;;;9.02;;
26407;SDS011;14583;43.604;1.364;2023-04-27T02:37:57;14.07;;;8.13;;
26407;SDS011;14583;43.604;1.364;2023-04-27T02:40:23;10.45;;;7.65;;
26407;SDS011;14583;43.604;1.364;2023-04-27T02:42:49;12.95;;;8.18;;
26407;SDS011;14583;43.604;1.364;2023-04-27T02:45:15;9.95;;;7.03;;
26407;SDS011;14583;43.604;1.364;2023-04-27T02:47:41;13.88;;;7.85;;
26407;SDS011;14583;43.604;1.364;2023-04-27T02:50:07;10.82;;;7.57;;
26407;SDS011;14583;43.604;1.364;2023-04-27T02:52:33;12.52;;;8.23;;
26407;SDS011;14583;43.604;1.364;2023-04-27T02:54:58;8.65;;;6.95;;
26407;SDS011;14583;43.604;1.364;2023-04-27T02:57:24;8.70;;;6.85;;
26407;SDS011;14583;43.604;1.364;2023-04-27T02:59:50;13.80;;;7.88;;
26407;SDS011;14583;43.604;1.364;2023-04-27T03:02:15;10.65;;;7.40;;
26407;SDS011;14583;43.604;1.364;2023-04-27T03:04:41;13.30;;;6.85;;
26407;SDS011;14583;43.604;1.364;2023-04-27T03:07:07;8.50;;;6.97;;
26407;SDS011;14583;43.604;1.364;2023-04-27T03:09:33;9.13;;;7.03;;
26407;SDS011;14583;43.604;1.364;2023-04-27T03:11:58;10.23;;;7.57;;
26407;SDS011;14583;43.604;1.364;2023-04-27T03:14:24;12.38;;;7.20;;
26407;SDS011;14583;43.604;1.364;2023-04-27T03:16:50;12.10;;;7.13;;
26407;SDS011;14583;43.604;1.364;2023-04-27T03:19:16;8.45;;;7.57;;
26407;SDS011;14583;43.604;1.364;2023-04-27T03:21:41;10.63;;;7.07;;
26407;SDS011;14583;43.604;1.364;2023-04-27T03:24:07;9.85;;;7.13;;
26407;SDS011;14583;43.604;1.364;2023-04-27T03:26:32;9.23;;;6.90;;
26407;SDS011;14583;43.604;1.364;2023-04-27T03:28:58;10.82;;;7.53;;
26407;SDS011;14583;43.604;1.364;2023-04-27T03:31:24;10.20;;;7.32;;
26407;SDS011;14583;43.604;1.364;2023-04-27T03:33:50;11.75;;;7.05;;
26407;SDS011;14583;43.604;1.364;2023-04-27T03:36:16;10.10;;;6.57;;
26407;SDS011;14583;43.604;1.364;2023-04-27T03:38:42;11.73;;;6.90;;
26407;SDS011;14583;43.604;1.364;2023-04-27T03:41:07;11.10;;;6.45;;
26407;SDS011;14583;43.604;1.364;2023-04-27T03:43:33;8.68;;;6.95;;
26407;SDS011;14583;43.604;1.364;2023-04-27T03:45:58;9.80;;;6.85;;
26407;SDS011;14583;43.604;1.364;2023-04-27T03:48:24;7.32;;;6.63;;
26407;SDS011;14583;43.604;1.364;2023-04-27T03:50:50;8.55;;;6.95;;
26407;SDS011;14583;43.604;1.364;2023-04-27T03:53:15;10.07;;;6.38;;
26407;SDS011;14583;43.604;1.364;2023-04-27T03:55:41;7.55;;;6.78;;
26407;SDS011;14583;43.604;1.364;2023-04-27T03:58:08;8.77;;;6.90;;
26407;SDS011;14583;43.604;1.364;2023-04-27T04:00:35;7.40;;;6.60;;
26407;SDS011;14583;43.604;1.364;2023-04-27T04:03:01;9.98;;;5.80;;
26407;SDS011;14583;43.604;1.364;2023-04-27T04:05:27;6.82;;;5.80;;
26407;SDS011;14583;43.604;1.364;2023-04-27T04:07:54;7.28;;;6.20;;
26407;SDS011;14583;43.604;1.364;2023-04-27T04:10:21;8.52;;;6.07;;
26407;SDS011;14583;43.604;1.364;2023-04-27T04:12:47;8.35;;;6.82;;
26407;SDS011;14583;43.604;1.364;2023-04-27T04:15:12;8.95;;;6.82;;
26407;SDS011;14583;43.604;1.364;2023-04-27T04:17:38;11.10;;;6.85;;
26407;SDS011;14583;43.604;1.364;2023-04-27T04:20:04;8.27;;;7.18;;
26407;SDS011;14583;43.604;1.364;2023-04-27T04:22:35;10.38;;;6.82;;
26407;SDS011;14583;43.604;1.364;2023-04-27T04:25:01;9.70;;;7.78;;
26407;SDS011;14583;43.604;1.364;2023-04-27T04:27:27;8.88;;;6.82;;
26407;SDS011;14583;43.604;1.364;2023-04-27T04:29:53;7.40;;;6.70;;
26407;SDS011;14583;43.604;1.364;2023-04-27T04:32:19;8.02;;;7.15;;
26407;SDS011;14583;43.604;1.364;2023-04-27T04:34:47;8.13;;;6.97;;
26407;SDS011;14583;43.604;1.364;2023-04-27T04:37:14;8.57;;;7.13;;
26407;SDS011;14583;43.604;1.364;2023-04-27T04:39:42;8.80;;;6.90;;
26407;SDS011;14583;43.604;1.364;2023-04-27T04:42:08;7.75;;;7.00;;
26407;SDS011;14583;43.604;1.364;2023-04-27T04:44:34;11.07;;;6.97;;
26407;SDS011;14583;43.604;1.364;2023-04-27T04:46:59;8.40;;;6.70;;
26407;SDS011;14583;43.604;1.364;2023-04-27T04:49:25;7.85;;;6.47;;
26407;SDS011;14583;43.604;1.364;2023-04-27T04:51:51;11.23;;;7.53;;
26407;SDS011;14583;43.604;1.364;2023-04-27T04:54:16;9.60;;;6.97;;
26407;SDS011;14583;43.604;1.364;2023-04-27T04:56:42;7.50;;;6.57;;
26407;SDS011;14583;43.604;1.364;2023-04-27T04:59:08;7.05;;;6.32;;
26407;SDS011;14583;43.604;1.364;2023-04-27T05:01:33;9.65;;;6.70;;
26407;SDS011;14583;43.604;1.364;2023-04-27T05:03:59;7.45;;;6.50;;
26407;SDS011;14583;43.604;1.364;2023-04-27T05:06:25;9.35;;;6.53;;
26407;SDS011;14583;43.604;1.364;2023-04-27T05:08:50;7.03;;;6.00;;
26407;SDS011;14583;43.604;1.364;2023-04-27T05:11:16;8.32;;;6.25;;
26407;SDS011;14583;43.604;1.364;2023-04-27T05:13:42;8.45;;;6.45;;
26407;SDS011;14583;43.604;1.364;2023-04-27T05:16:07;9.82;;;6.65;;
26407;SDS011;14583;43.604;1.364;2023-04-27T05:18:33;8.48;;;6.60;;
26407;SDS011;14583;43.604;1.364;2023-04-27T05:21:00;10.02;;;6.80;;
26407;SDS011;14583;43.604;1.364;2023-04-27T05:23:26;7.10;;;6.40;;
26407;SDS011;14583;43.604;1.364;2023-04-27T05:25:51;7.13;;;5.97;;
26407;SDS011;14583;43.604;1.364;2023-04-27T05:28:17;9.32;;;6.13;;
26407;SDS011;14583;43.604;1.364;2023-04-27T05:30:43;8.10;;;6.47;;
26407;SDS011;14583;43.604;1.364;2023-04-27T05:33:09;9.63;;;6.18;;
26407;SDS011;14583;43.604;1.364;2023-04-27T05:35:34;6.50;;;5.88;;
26407;SDS011;14583;43.604;1.364;2023-04-27T05:38:00;5.95;;;5.28;;
26407;SDS011;14583;43.604;1.364;2023-04-27T05:40:26;7.15;;;6.25;;
26407;SDS011;14583;43.604;1.364;2023-04-27T05:42:52;6.30;;;5.47;;
26407;SDS011;14583;43.604;1.364;2023-04-27T05:45:18;6.88;;;5.63;;
26407;SDS011;14583;43.604;1.364;2023-04-27T05:47:45;9.13;;;6.60;;
26407;SDS011;14583;43.604;1.364;2023-04-27T05:50:10;6.53;;;5.75;;
26407;SDS011;14583;43.604;1.364;2023-04-27T05:52:36;8.65;;;6.20;;
26407;SDS011;14583;43.604;1.364;2023-04-27T05:55:03;10.75;;;6.68;;
26407;SDS011;14583;43.604;1.364;2023-04-27T05:57:29;7.65;;;6.80;;
26407;SDS011;14583;43.604;1.364;2023-04-27T05:59:55;7.55;;;6.50;;
26407;SDS011;14583;43.604;1.364;2023-04-27T06:02:21;6.60;;;6.00;;
26407;SDS011;14583;43.604;1.364;2023-04-27T06:04:47;6.95;;;6.25;;
26407;SDS011;14583;43.604;1.364;2023-04-27T06:07:13;7.32;;;6.35;;
26407;SDS011;14583;43.604;1.364;2023-04-27T06:09:39;8.30;;;6.10;;
26407;SDS011;14583;43.604;1.364;2023-04-27T06:12:06;11.10;;;6.32;;
26407;SDS011;14583;43.604;1.364;2023-04-27T06:14:32;7.10;;;6.03;;
26407;SDS011;14583;43.604;1.364;2023-04-27T06:17:00;8.90;;;6.28;;
26407;SDS011;14583;43.604;1.364;2023-04-27T06:19:26;6.35;;;5.68;;
26407;SDS011;14583;43.604;1.364;2023-04-27T06:21:52;6.65;;;5.97;;
26407;SDS011;14583;43.604;1.364;2023-04-27T06:24:19;7.63;;;5.40;;
26407;SDS011;14583;43.604;1.364;2023-04-27T06:26:46;8.60;;;6.28;;
26407;SDS011;14583;43.604;1.364;2023-04-27T06:29:13;6.97;;;6.28;;
26407;SDS011;14583;43.604;1.364;2023-04-27T06:31:38;8.43;;;6.18;;
26407;SDS011;14583;43.604;1.364;2023-04-27T06:34:04;7.70;;;6.18;;
26407;SDS011;14583;43.604;1.364;2023-04-27T06:36:30;7.68;;;6.70;;
26407;SDS011;14583;43.604;1.364;2023-04-27T06:38:56;8.43;;;6.35;;
26407;SDS011;14583;43.604;1.364;2023-04-27T06:41:22;8.65;;;6.53;;
26407;SDS011;14583;43.604;1.364;2023-04-27T06:43:49;11.93;;;6.32;;
26407;SDS011;14583;43.604;1.364;2023-04-27T06:46:15;7.43;;;6.60;;
26407;SDS011;14583;43.604;1.364;2023-04-27T06:48:40;10.43;;;6.40;;
26407;SDS011;14583;43.604;1.364;2023-04-27T06:51:06;7.82;;;6.80;;
26407;SDS011;14583;43.604;1.364;2023-04-27T06:53:32;11.70;;;6.05;;
26407;SDS011;14583;43.604;1.364;2023-04-27T06:55:58;7.82;;;6.53;;
26407;SDS011;14583;43.604;1.364;2023-04-27T06:58:23;7.68;;;6.28;;
26407;SDS011;14583;43.604;1.364;2023-04-27T07:00:49;8.38;;;4.40;;
26407;SDS011;14583;43.604;1.364;2023-04-27T07:03:15;7.57;;;5.68;;
26407;SDS011;14583;43.604;1.364;2023-04-27T07:05:41;11.00;;;5.63;;
26407;SDS011;14583;43.604;1.364;2023-04-27T07:08:07;9.20;;;4.80;;
26407;SDS011;14583;43.604;1.364;2023-04-27T07:10:32;5.45;;;4.53;;
26407;SDS011;14583;43.604;1.364;2023-04-27T07:12:58;9.20;;;4.88;;
26407;SDS011;14583;43.604;1.364;2023-04-27T07:15:24;8.70;;;3.70;;
26407;SDS011;14583;43.604;1.364;2023-04-27T07:17:50;6.05;;;3.97;;
26407;SDS011;14583;43.604;1.364;2023-04-27T07:20:19;4.95;;;3.40;;
26407;SDS011;14583;43.604;1.364;2023-04-27T07:22:45;10.35;;;3.55;;
26407;SDS011;14583;43.604;1.364;2023-04-27T07:25:11;5.65;;;2.88;;
26407;SDS011;14583;43.604;1.364;2023-04-27T07:27:37;5.15;;;2.88;;
26407;SDS011;14583;43.604;1.364;2023-04-27T07:30:03;6.05;;;2.60;;
26407;SDS011;14583;43.604;1.364;2023-04-27T07:32:32;4.65;;;2.13;;
26407;SDS011;14583;43.604;1.364;2023-04-27T07:34:58;4.45;;;2.15;;
26407;SDS011;14583;43.604;1.364;2023-04-27T07:37:24;16.20;;;2.80;;
26407;SDS011;14583;43.604;1.364;2023-04-27T07:39:50;5.57;;;2.35;;
26407;SDS011;14583;43.604;1.364;2023-04-27T07:42:17;3.95;;;2.33;;
26407;SDS011;14583;43.604;1.364;2023-04-27T07:44:43;4.43;;;2.30;;
26407;SDS011;14583;43.604;1.364;2023-04-27T07:47:09;6.97;;;2.72;;
26407;SDS011;14583;43.604;1.364;2023-04-27T07:49:35;6.57;;;2.38;;
26407;SDS011;14583;43.604;1.364;2023-04-27T07:52:01;4.13;;;2.50;;
26407;SDS011;14583;43.604;1.364;2023-04-27T07:54:28;6.15;;;2.17;;
26407;SDS011;14583;43.604;1.364;2023-04-27T07:56:54;5.88;;;2.40;;
26407;SDS011;14583;43.604;1.364;2023-04-27T07:59:19;4.25;;;2.60;;
26407;SDS011;14583;43.604;1.364;2023-04-27T08:01:45;8.40;;;2.58;;
26407;SDS011;14583;43.604;1.364;2023-04-27T08:04:11;5.75;;;2.70;;
26407;SDS011;14583;43.604;1.364;2023-04-27T08:06:37;7.70;;;2.67;;
26407;SDS011;14583;43.604;1.364;2023-04-27T08:09:03;7.35;;;3.25;;
26407;SDS011;14583;43.604;1.364;2023-04-27T08:11:29;7.25;;;3.17;;
26407;SDS011;14583;43.604;1.364;2023-04-27T08:13:55;9.48;;;3.20;;
26407;SDS011;14583;43.604;1.364;2023-04-27T08:16:21;12.57;;;3.45;;
26407;SDS011;14583;43.604;1.364;2023-04-27T08:18:48;4.93;;;3.03;;
26407;SDS011;14583;43.604;1.364;2023-04-27T08:21:13;6.30;;;3.08;;
26407;SDS011;14583;43.604;1.364;2023-04-27T08:23:39;6.88;;;2.95;;
26407;SDS011;14583;43.604;1.364;2023-04-27T08:26:04;14.38;;;3.22;;
26407;SDS011;14583;43.604;1.364;2023-04-27T08:28:30;6.25;;;2.97;;
26407;SDS011;14583;43.604;1.364;2023-04-27T08:30:56;3.40;;;2.30;;
26407;SDS011;14583;43.604;1.364;2023-04-27T08:33:21;6.75;;;2.53;;
26407;SDS011;14583;43.604;1.364;2023-04-27T08:35:47;6.53;;;2.30;;
26407;SDS011;14583;43.604;1.364;2023-04-27T08:38:12;5.35;;;2.42;;
26407;SDS011;14583;43.604;1.364;2023-04-27T08:40:42;5.95;;;2.80;;
26407;SDS011;14583;43.604;1.364;2023-04-27T08:43:08;7.18;;;2.72;;
26407;SDS011;14583;43.604;1.364;2023-04-27T08:45:33;9.27;;;2.65;;
26407;SDS011;14583;43.604;1.364;2023-04-27T08:47:59;4.45;;;2.53;;
26407;SDS011;14583;43.604;1.364;2023-04-27T08:50:25;4.50;;;2.30;;
26407;SDS011;14583;43.604;1.364;2023-04-27T08:52:51;6.53;;;2.08;;
26407;SDS011;14583;43.604;1.364;2023-04-27T08:55:17;4.72;;;1.70;;
26407;SDS011;14583;43.604;1.364;2023-04-27T08:57:53;4.15;;;2.10;;
26407;SDS011;14583;43.604;1.364;2023-04-27T09:00:20;6.65;;;1.70;;
26407;SDS011;14583;43.604;1.364;2023-04-27T09:02:46;9.35;;;1.60;;
26407;SDS011;14583;43.604;1.364;2023-04-27T09:05:18;8.95;;;2.53;;
26407;SDS011;14583;43.604;1.364;2023-04-27T09:13:06;4.22;;;1.50;;
26407;SDS011;14583;43.604;1.364;2023-04-27T09:15:39;1.83;;;1.10;;
26407;SDS011;14583;43.604;1.364;2023-04-27T09:18:11;2.53;;;1.30;;
26407;SDS011;14583;43.604;1.364;2023-04-27T09:20:46;2.78;;;1.80;;
26407;SDS011;14583;43.604;1.364;2023-04-27T09:25:56;5.38;;;1.48;;
26407;SDS011;14583;43.604;1.364;2023-04-27T09:28:23;3.30;;;1.25;;
26407;SDS011;14583;43.604;1.364;2023-04-27T09:30:54;3.50;;;1.50;;
26407;SDS011;14583;43.604;1.364;2023-04-27T09:33:22;2.30;;;1.63;;
26407;SDS011;14583;43.604;1.364;2023-04-27T09:35:48;4.13;;;1.80;;
26407;SDS011;14583;43.604;1.364;2023-04-27T09:38:14;7.43;;;1.95;;
26407;SDS011;14583;43.604;1.364;2023-04-27T09:40:42;5.55;;;2.30;;
26407;SDS011;14583;43.604;1.364;2023-04-27T09:43:08;5.10;;;2.08;;
26407;SDS011;14583;43.604;1.364;2023-04-27T09:45:34;5.32;;;2.17;;
26407;SDS011;14583;43.604;1.364;2023-04-27T09:48:01;3.47;;;1.92;;
26407;SDS011;14583;43.604;1.364;2023-04-27T09:50:29;4.90;;;2.10;;
26407;SDS011;14583;43.604;1.364;2023-04-27T09:52:58;6.38;;;2.17;;
26407;SDS011;14583;43.604;1.364;2023-04-27T09:55:27;3.38;;;1.92;;
26407;SDS011;14583;43.604;1.364;2023-04-27T10:09:24;4.57;;;1.75;;
26407;SDS011;14583;43.604;1.364;2023-04-27T10:11:52;8.60;;;2.20;;
26407;SDS011;14583;43.604;1.364;2023-04-27T10:14:19;2.20;;;1.33;;
26407;SDS011;14583;43.604;1.364;2023-04-27T10:16:57;3.47;;;1.75;;
26407;SDS011;14583;43.604;1.364;2023-04-27T10:19:23;5.97;;;2.17;;
26407;SDS011;14583;43.604;1.364;2023-04-27T10:21:50;3.70;;;1.85;;
26407;SDS011;14583;43.604;1.364;2023-04-27T10:24:16;4.18;;;1.70;;
26407;SDS011;14583;43.604;1.364;2023-04-27T10:26:45;3.63;;;1.70;;
26407;SDS011;14583;43.604;1.364;2023-04-27T10:29:12;1.92;;;1.58;;
26407;SDS011;14583;43.604;1.364;2023-04-27T10:31:44;4.63;;;1.50;;
26407;SDS011;14583;43.604;1.364;2023-04-27T10:34:15;12.55;;;2.15;;
26407;SDS011;14583;43.604;1.364;2023-04-27T10:36:42;2.05;;;1.50;;
26407;SDS011;14583;43.604;1.364;2023-04-27T10:39:14;5.10;;;1.63;;
26407;SDS011;14583;43.604;1.364;2023-04-27T10:41:47;4.30;;;1.98;;
26407;SDS011;14583;43.604;1.364;2023-04-27T10:44:26;4.32;;;1.55;;
26407;SDS011;14583;43.604;1.364;2023-04-27T10:46:54;3.45;;;1.95;;
26407;SDS011;14583;43.604;1.364;2023-04-27T10:49:22;6.63;;;1.83;;
26407;SDS011;14583;43.604;1.364;2023-04-27T10:51:51;2.33;;;1.58;;
26407;SDS011;14583;43.604;1.364;2023-04-27T10:54:17;4.47;;;1.50;;
26407;SDS011;14583;43.604;1.364;2023-04-27T10:56:43;4.80;;;2.00;;
26407;SDS011;14583;43.604;1.364;2023-04-27T10:59:09;5.55;;;1.67;;
26407;SDS011;14583;43.604;1.364;2023-04-27T11:01:35;7.18;;;1.67;;
26407;SDS011;14583;43.604;1.364;2023-04-27T11:04:01;9.40;;;1.75;;
26407;SDS011;14583;43.604;1.364;2023-04-27T11:06:28;3.25;;;1.40;;
26407;SDS011;14583;43.604;1.364;2023-04-27T11:08:55;2.10;;;1.52;;
26407;SDS011;14583;43.604;1.364;2023-04-27T11:11:21;8.30;;;1.77;;
26407;SDS011;14583;43.604;1.364;2023-04-27T11:13:48;3.65;;;1.70;;
26407;SDS011;14583;43.604;1.364;2023-04-27T11:16:17;2.30;;;1.45;;
26407;SDS011;14583;43.604;1.364;2023-04-27T11:18:45;7.65;;;2.75;;
26407;SDS011;14583;43.604;1.364;2023-04-27T11:21:12;2.50;;;1.50;;
26407;SDS011;14583;43.604;1.364;2023-04-27T11:23:40;3.28;;;2.08;;
26407;SDS011;14583;43.604;1.364;2023-04-27T11:28:43;4.93;;;1.63;;
26407;SDS011;14583;43.604;1.364;2023-04-27T11:31:09;6.25;;;1.85;;
26407;SDS011;14583;43.604;1.364;2023-04-27T11:33:35;1.90;;;1.70;;
26407;SDS011;14583;43.604;1.364;2023-04-27T11:36:03;2.67;;;2.10;;
26407;SDS011;14583;43.604;1.364;2023-04-27T11:38:40;2.38;;;1.60;;
26407;SDS011;14583;43.604;1.364;2023-04-27T11:41:06;6.68;;;2.03;;
26407;SDS011;14583;43.604;1.364;2023-04-27T11:43:36;2.85;;;1.65;;
26407;SDS011;14583;43.604;1.364;2023-04-27T11:46:07;2.50;;;1.52;;
26407;SDS011;14583;43.604;1.364;2023-04-27T11:48:38;18.70;;;4.70;;
26407;SDS011;14583;43.604;1.364;2023-04-27T11:51:04;24.95;;;7.82;;
26407;SDS011;14583;43.604;1.364;2023-04-27T11:53:30;16.40;;;5.25;;
26407;SDS011;14583;43.604;1.364;2023-04-27T11:56:01;4.20;;;1.50;;
26407;SDS011;14583;43.604;1.364;2023-04-27T11:58:35;3.17;;;1.48;;
26407;SDS011;14583;43.604;1.364;2023-04-27T12:01:02;2.95;;;1.50;;
26407;SDS011;14583;43.604;1.364;2023-04-27T12:03:28;2.03;;;1.33;;
26407;SDS011;14583;43.604;1.364;2023-04-27T12:05:54;7.43;;;1.50;;
26407;SDS011;14583;43.604;1.364;2023-04-27T12:08:20;3.63;;;1.30;;
26407;SDS011;14583;43.604;1.364;2023-04-27T12:10:47;1.88;;;1.38;;
26407;SDS011;14583;43.604;1.364;2023-04-27T12:13:12;3.30;;;1.50;;
26407;SDS011;14583;43.604;1.364;2023-04-27T12:15:38;3.05;;;1.40;;
26407;SDS011;14583;43.604;1.364;2023-04-27T12:18:05;3.38;;;1.70;;
26407;SDS011;14583;43.604;1.364;2023-04-27T12:20:31;2.45;;;1.50;;
26407;SDS011;14583;43.604;1.364;2023-04-27T12:22:57;2.03;;;1.15;;
26407;SDS011;14583;43.604;1.364;2023-04-27T12:25:23;3.60;;;1.60;;
26407;SDS011;14583;43.604;1.364;2023-04-27T12:27:49;3.17;;;1.42;;
26407;SDS011;14583;43.604;1.364;2023-04-27T12:30:15;4.38;;;1.42;;
26407;SDS011;14583;43.604;1.364;2023-04-27T12:32:41;5.70;;;1.27;;
26407;SDS011;14583;43.604;1.364;2023-04-27T12:35:07;3.33;;;1.20;;
26407;SDS011;14583;43.604;1.364;2023-04-27T12:37:33;2.78;;;1.30;;
26407;SDS011;14583;43.604;1.364;2023-04-27T12:39:59;3.40;;;1.10;;
26407;SDS011;14583;43.604;1.364;2023-04-27T12:42:25;5.32;;;1.23;;
26407;SDS011;14583;43.604;1.364;2023-04-27T12:44:51;3.03;;;1.10;;
26407;SDS011;14583;43.604;1.364;2023-04-27T12:47:17;1.17;;;1.00;;
26407;SDS011;14583;43.604;1.364;2023-04-27T12:49:45;1.80;;;1.13;;
26407;SDS011;14583;43.604;1.364;2023-04-27T12:52:11;2.95;;;1.30;;
26407;SDS011;14583;43.604;1.364;2023-04-27T12:54:37;6.18;;;1.20;;
26407;SDS011;14583;43.604;1.364;2023-04-27T12:57:03;3.38;;;1.40;;
26407;SDS011;14583;43.604;1.364;2023-04-27T12:59:32;3.42;;;1.13;;
26407;SDS011;14583;43.604;1.364;2023-04-27T13:02:01;2.35;;;1.20;;
26407;SDS011;14583;43.604;1.364;2023-04-27T13:04:28;3.83;;;2.15;;
26407;SDS011;14583;43.604;1.364;2023-04-27T13:06:55;6.20;;;1.33;;
26407;SDS011;14583;43.604;1.364;2023-04-27T13:09:25;3.35;;;1.20;;
26407;SDS011;14583;43.604;1.364;2023-04-27T13:11:53;4.03;;;1.40;;
26407;SDS011;14583;43.604;1.364;2023-04-27T13:14:20;2.80;;;1.40;;
26407;SDS011;14583;43.604;1.364;2023-04-27T13:16:45;1.95;;;1.58;;
26407;SDS011;14583;43.604;1.364;2023-04-27T13:19:11;2.47;;;1.73;;
26407;SDS011;14583;43.604;1.364;2023-04-27T13:21:37;2.03;;;1.38;;
26407;SDS011;14583;43.604;1.364;2023-04-27T13:24:03;2.90;;;1.30;;
26407;SDS011;14583;43.604;1.364;2023-04-27T13:26:29;1.30;;;1.10;;
26407;SDS011;14583;43.604;1.364;2023-04-27T13:28:55;4.38;;;1.20;;
26407;SDS011;14583;43.604;1.364;2023-04-27T13:31:21;2.55;;;1.10;;
26407;SDS011;14583;43.604;1.364;2023-04-27T13:33:46;2.45;;;1.20;;
26407;SDS011;14583;43.604;1.364;2023-04-27T13:36:12;4.18;;;1.42;;
26407;SDS011;14583;43.604;1.364;2023-04-27T13:38:38;2.17;;;1.48;;
26407;SDS011;14583;43.604;1.364;2023-04-27T13:41:04;1.65;;;1.20;;
26407;SDS011;14583;43.604;1.364;2023-04-27T13:43:30;2.60;;;1.00;;
26407;SDS011;14583;43.604;1.364;2023-04-27T13:45:57;3.45;;;1.30;;
26407;SDS011;14583;43.604;1.364;2023-04-27T13:48:23;2.03;;;1.23;;
26407;SDS011;14583;43.604;1.364;2023-04-27T13:50:49;2.83;;;1.30;;
26407;SDS011;14583;43.604;1.364;2023-04-27T13:53:15;3.65;;;1.30;;
26407;SDS011;14583;43.604;1.364;2023-04-27T13:55:41;4.57;;;1.10;;
26407;SDS011;14583;43.604;1.364;2023-04-27T13:58:07;1.33;;;0.88;;
26407;SDS011;14583;43.604;1.364;2023-04-27T14:00:34;2.08;;;1.10;;
26407;SDS011;14583;43.604;1.364;2023-04-27T14:03:01;1.70;;;1.10;;
26407;SDS011;14583;43.604;1.364;2023-04-27T14:05:28;3.17;;;1.10;;
26407;SDS011;14583;43.604;1.364;2023-04-27T14:07:54;2.45;;;1.00;;
26407;SDS011;14583;43.604;1.364;2023-04-27T14:10:21;1.90;;;1.25;;
26407;SDS011;14583;43.604;1.364;2023-04-27T14:12:46;1.98;;;1.20;;
26407;SDS011;14583;43.604;1.364;2023-04-27T14:15:12;1.85;;;1.15;;
26407;SDS011;14583;43.604;1.364;2023-04-27T14:17:38;2.65;;;1.40;;
26407;SDS011;14583;43.604;1.364;2023-04-27T14:20:04;1.80;;;1.10;;
26407;SDS011;14583;43.604;1.364;2023-04-27T14:22:31;2.33;;;1.95;;
26407;SDS011;14583;43.604;1.364;2023-04-27T14:24:57;2.72;;;1.20;;
26407;SDS011;14583;43.604;1.364;2023-04-27T14:27:23;3.22;;;1.23;;
26407;SDS011;14583;43.604;1.364;2023-04-27T14:29:49;4.00;;;1.30;;
26407;SDS011;14583;43.604;1.364;2023-04-27T14:32:14;2.05;;;1.20;;
26407;SDS011;14583;43.604;1.364;2023-04-27T14:34:40;2.42;;;1.23;;
26407;SDS011;14583;43.604;1.364;2023-04-27T14:37:06;1.02;;;0.93;;
26407;SDS011;14583;43.604;1.364;2023-04-27T14:39:31;3.38;;;1.30;;
26407;SDS011;14583;43.604;1.364;2023-04-27T14:41:57;3.38;;;1.48;;
26407;SDS011;14583;43.604;1.364;2023-04-27T14:44:23;1.30;;;1.10;;
26407;SDS011;14583;43.604;1.364;2023-04-27T14:46:49;1.33;;;0.90;;
26407;SDS011;14583;43.604;1.364;2023-04-27T14:49:15;2.15;;;1.30;;
26407;SDS011;14583;43.604;1.364;2023-04-27T14:51:40;2.65;;;1.13;;
26407;SDS011;14583;43.604;1.364;2023-04-27T14:54:06;2.38;;;1.15;;
26407;SDS011;14583;43.604;1.364;2023-04-27T14:56:33;2.50;;;1.10;;
26407;SDS011;14583;43.604;1.364;2023-04-27T14:58:59;2.65;;;1.05;;
26407;SDS011;14583;43.604;1.364;2023-04-27T15:01:25;4.25;;;1.40;;